createdAt,value
2019-05-25T00:01:14.276Z,6.60
2019-05-25T00:03:42.976Z,3.40
2019-05-25T00:06:11.394Z,3.60
2019-05-25T00:08:39.757Z,3.67
2019-05-25T00:11:08.413Z,3.20
2019-05-25T00:13:36.847Z,3.77
2019-05-25T00:16:05.650Z,3.53
2019-05-25T00:18:34.089Z,3.20
2019-05-25T00:21:02.780Z,3.00
2019-05-25T00:23:31.441Z,3.30
2019-05-25T00:25:59.918Z,3.20
2019-05-25T00:28:28.621Z,3.70
2019-05-25T00:30:57.515Z,3.07
2019-05-25T00:33:26.179Z,3.23
2019-05-25T00:35:54.911Z,3.30
2019-05-25T00:38:23.459Z,3.03
2019-05-25T00:40:52.245Z,2.93
2019-05-25T00:43:20.965Z,3.30
2019-05-25T00:45:49.821Z,3.63
2019-05-25T00:48:18.199Z,3.27
2019-05-25T00:50:47.115Z,3.40
2019-05-25T00:53:15.575Z,3.50
2019-05-25T00:55:44.346Z,3.30
2019-05-25T00:58:12.849Z,4.00
2019-05-25T01:00:41.732Z,3.40
2019-05-25T01:03:10.395Z,3.70
2019-05-25T01:05:39.206Z,3.60
2019-05-25T01:08:07.775Z,3.63
2019-05-25T01:10:36.451Z,3.73
2019-05-25T01:13:05.158Z,3.70
2019-05-25T01:15:33.841Z,3.40
2019-05-25T01:18:02.505Z,3.60
2019-05-25T01:20:31.219Z,3.83
2019-05-25T01:23:00.402Z,3.90
2019-05-25T01:25:29.208Z,4.00
2019-05-25T01:27:57.902Z,3.60
2019-05-25T01:30:26.551Z,3.63
2019-05-25T01:32:55.983Z,3.70
2019-05-25T01:35:24.792Z,3.83
2019-05-25T01:37:53.423Z,3.70
2019-05-25T01:40:22.106Z,4.17
2019-05-25T01:42:51.121Z,3.90
2019-05-25T01:45:19.595Z,4.10
2019-05-25T01:47:48.174Z,4.03
2019-05-25T01:50:17.003Z,5.07
2019-05-25T01:52:45.544Z,5.00
2019-05-25T01:55:14.641Z,5.17
2019-05-25T01:57:43.155Z,5.57
2019-05-25T02:00:12.332Z,6.30
2019-05-25T02:02:40.828Z,6.10
2019-05-25T02:05:09.623Z,6.23
2019-05-25T02:07:38.170Z,6.57
2019-05-25T02:10:07.378Z,7.30
2019-05-25T02:12:36.295Z,7.17
2019-05-25T02:15:05.545Z,7.33
2019-05-25T02:17:34.056Z,7.77
2019-05-25T02:20:02.748Z,7.93
2019-05-25T02:22:31.415Z,7.90
2019-05-25T02:25:16.393Z,8.40
2019-05-25T02:27:30.663Z,8.03
2019-05-25T02:29:59.107Z,7.63
2019-05-25T02:32:27.514Z,7.60
2019-05-25T02:34:55.898Z,7.33
2019-05-25T02:37:24.983Z,7.50
2019-05-25T02:39:53.662Z,7.57
2019-05-25T02:42:22.359Z,7.40
2019-05-25T02:44:50.709Z,7.57
2019-05-25T02:47:19.100Z,7.77
2019-05-25T02:49:47.803Z,8.20
2019-05-25T02:52:16.521Z,7.30
2019-05-25T02:54:46.166Z,7.77
2019-05-25T02:57:14.889Z,7.60
2019-05-25T02:59:43.241Z,7.23
2019-05-25T03:02:12.821Z,7.40
2019-05-25T03:04:41.555Z,8.07
2019-05-25T03:07:11.033Z,7.17
2019-05-25T03:09:41.971Z,8.13
2019-05-25T03:12:10.479Z,7.67
2019-05-25T03:14:39.136Z,7.70
2019-05-25T03:17:07.823Z,7.57
2019-05-25T03:19:36.552Z,8.00
2019-05-25T03:22:05.191Z,8.73
2019-05-25T03:24:33.878Z,7.77
2019-05-25T03:27:02.722Z,8.03
2019-05-25T03:29:31.355Z,7.90
2019-05-25T03:32:00.138Z,7.27
2019-05-25T03:34:28.855Z,7.37
2019-05-25T03:36:57.511Z,7.97
2019-05-25T03:39:25.990Z,7.30
2019-05-25T03:41:54.724Z,7.80
2019-05-25T03:44:23.066Z,7.10
2019-05-25T03:46:51.829Z,6.47
2019-05-25T03:49:20.566Z,6.97
2019-05-25T03:51:49.003Z,6.70
2019-05-25T03:54:17.712Z,6.93
2019-05-25T03:56:46.394Z,7.23
2019-05-25T03:59:15.450Z,7.00
2019-05-25T04:01:44.147Z,6.43
2019-05-25T04:04:12.855Z,7.20
2019-05-25T04:06:41.518Z,7.03
2019-05-25T04:09:10.014Z,6.17
2019-05-25T04:11:38.736Z,6.67
2019-05-25T04:14:07.407Z,6.17
2019-05-25T04:16:36.134Z,6.03
2019-05-25T04:19:04.471Z,6.07
2019-05-25T04:21:33.041Z,5.97
2019-05-25T04:24:02.022Z,6.57
2019-05-25T04:26:33.619Z,5.73
2019-05-25T04:29:02.156Z,6.10
2019-05-25T04:31:30.843Z,6.00
2019-05-25T04:33:59.562Z,5.77
2019-05-25T04:36:28.210Z,5.23
2019-05-25T04:38:57.730Z,5.50
2019-05-25T04:41:26.425Z,5.67
2019-05-25T04:43:55.092Z,5.40
2019-05-25T04:46:23.767Z,5.50
2019-05-25T04:48:52.481Z,5.37
2019-05-25T04:51:21.142Z,5.77
2019-05-25T04:53:50.031Z,5.60
2019-05-25T04:56:18.751Z,5.20
2019-05-25T04:58:47.402Z,5.43
2019-05-25T05:01:16.497Z,5.60
2019-05-25T05:03:46.645Z,5.47
2019-05-25T05:06:15.307Z,6.27
2019-05-25T05:08:43.586Z,5.80
2019-05-25T05:11:12.290Z,5.27
2019-05-25T05:13:40.644Z,6.23
2019-05-25T05:16:09.026Z,5.87
2019-05-25T05:18:37.726Z,6.13
2019-05-25T05:21:06.095Z,6.47
2019-05-25T05:23:34.774Z,6.27
2019-05-25T05:26:03.285Z,6.37
2019-05-25T05:28:32.758Z,5.83
2019-05-25T05:31:01.546Z,6.30
2019-05-25T05:33:30.123Z,5.70
2019-05-25T05:36:01.995Z,5.73
2019-05-25T05:38:31.115Z,6.40
2019-05-25T05:41:00.176Z,6.73
2019-05-25T05:43:31.007Z,6.47
2019-05-25T05:46:01.487Z,6.90
2019-05-25T05:48:31.772Z,6.40
2019-05-25T05:51:00.965Z,6.30
2019-05-25T05:53:31.278Z,6.40
2019-05-25T05:56:00.062Z,6.33
2019-05-25T05:58:28.754Z,6.57
2019-05-25T06:01:02.798Z,6.80
2019-05-25T06:03:34.176Z,6.67
2019-05-25T06:06:13.038Z,6.50
2019-05-25T06:08:56.525Z,6.60
2019-05-25T06:11:31.587Z,5.90
2019-05-25T06:14:08.689Z,6.77
2019-05-25T06:16:44.652Z,6.30
2019-05-25T06:19:21.530Z,6.63
2019-05-25T06:21:54.900Z,5.77
2019-05-25T06:24:26.672Z,6.30
2019-05-25T06:26:59.345Z,6.77
2019-05-25T06:29:33.814Z,6.13
2019-05-25T06:32:03.630Z,5.90
2019-05-25T06:34:44.557Z,6.07
2019-05-25T06:37:17.172Z,5.83
2019-05-25T06:40:00.855Z,5.63
2019-05-25T06:42:35.861Z,5.83
2019-05-25T06:45:10.696Z,4.73
2019-05-25T06:47:44.139Z,5.37
2019-05-25T06:50:21.713Z,5.13
2019-05-25T06:52:58.071Z,5.10
2019-05-25T06:55:41.772Z,4.77
2019-05-25T06:58:13.012Z,4.60
2019-05-25T07:00:47.525Z,4.30
2019-05-25T07:03:21.353Z,4.50
2019-05-25T07:05:57.665Z,4.23
2019-05-25T07:08:28.873Z,4.43
2019-05-25T07:11:21.747Z,4.47
2019-05-25T07:13:55.403Z,4.20
2019-05-25T07:16:26.738Z,4.00
2019-05-25T07:19:00.335Z,4.10
2019-05-25T07:21:35.690Z,4.37
2019-05-25T07:24:10.695Z,3.70
2019-05-25T07:26:42.675Z,4.23
2019-05-25T07:29:15.300Z,4.23
2019-05-25T07:31:47.251Z,3.70
2019-05-25T07:34:21.583Z,4.33
2019-05-25T07:36:54.145Z,3.60
2019-05-25T07:39:27.520Z,4.00
2019-05-25T07:42:06.950Z,4.30
2019-05-25T07:44:42.428Z,3.83
2019-05-25T07:47:17.189Z,4.30
2019-05-25T07:49:50.036Z,4.23
2019-05-25T07:52:35.036Z,3.97
2019-05-25T07:55:09.479Z,4.07
2019-05-25T07:57:45.254Z,4.37
2019-05-25T08:00:21.190Z,4.33
2019-05-25T08:02:57.986Z,4.13
2019-05-25T08:05:31.912Z,3.83
2019-05-25T08:08:06.109Z,4.00
2019-05-25T08:10:38.325Z,3.97
2019-05-25T08:13:12.919Z,3.80
2019-05-25T08:15:50.778Z,3.97
2019-05-25T08:18:28.588Z,3.70
2019-05-25T08:21:04.751Z,4.00
2019-05-25T08:23:38.003Z,4.00
2019-05-25T08:26:11.488Z,4.03
2019-05-25T08:28:49.500Z,4.20
2019-05-25T08:31:23.827Z,3.97
2019-05-25T08:33:59.391Z,4.20
2019-05-25T08:36:36.759Z,3.97
2019-05-25T08:39:13.777Z,4.00
2019-05-25T08:41:49.162Z,4.20
2019-05-25T08:44:30.683Z,3.73
2019-05-25T08:47:09.530Z,4.03
2019-05-25T08:49:44.908Z,4.67
2019-05-25T08:52:20.604Z,4.40
2019-05-25T08:54:56.664Z,4.37
2019-05-25T08:57:31.194Z,4.10
2019-05-25T09:00:08.631Z,4.60
2019-05-25T09:02:43.279Z,4.17
2019-05-25T09:05:25.828Z,4.20
2019-05-25T09:08:02.456Z,4.67
2019-05-25T09:10:39.503Z,4.67
2019-05-25T09:13:14.384Z,4.47
2019-05-25T09:15:51.639Z,4.57
2019-05-25T09:18:28.374Z,4.57
2019-05-25T09:21:05.336Z,4.50
2019-05-25T09:23:37.968Z,4.80
2019-05-25T09:26:13.456Z,4.50
2019-05-25T09:28:46.610Z,5.50
2019-05-25T09:31:21.006Z,5.20
2019-05-25T09:33:55.402Z,5.03
2019-05-25T09:36:31.610Z,5.00
2019-05-25T09:39:07.108Z,5.67
2019-05-25T09:41:40.866Z,5.40
2019-05-25T09:44:12.505Z,8.37
2019-05-25T09:46:45.266Z,5.27
2019-05-25T09:49:26.177Z,5.17
2019-05-25T09:52:01.404Z,4.93
2019-05-25T09:54:34.728Z,5.73
2019-05-25T09:57:17.330Z,5.03
2019-05-25T09:59:50.643Z,5.37
2019-05-25T10:02:23.242Z,5.00
2019-05-25T10:04:54.797Z,6.00
2019-05-25T10:07:28.122Z,5.40
2019-05-25T10:09:58.846Z,5.47
2019-05-25T10:12:34.831Z,5.30
2019-05-25T10:15:05.095Z,4.90
2019-05-25T10:17:42.134Z,4.67
2019-05-25T10:20:18.607Z,4.77
2019-05-25T10:22:57.407Z,4.70
2019-05-25T10:25:29.561Z,4.03
2019-05-25T10:28:18.744Z,5.23
2019-05-25T10:30:54.955Z,5.60
2019-05-25T10:33:29.024Z,4.87
2019-05-25T10:36:03.865Z,5.70
2019-05-25T10:38:35.217Z,5.00
2019-05-25T10:41:11.532Z,4.93
2019-05-25T10:43:44.767Z,4.50
2019-05-25T10:46:16.044Z,4.50
2019-05-25T10:48:57.892Z,4.70
2019-05-25T10:51:34.188Z,4.90
2019-05-25T10:54:05.490Z,5.43
2019-05-25T10:56:49.189Z,4.97
2019-05-25T10:59:24.607Z,4.50
2019-05-25T11:02:05.540Z,3.87
2019-05-25T11:04:42.367Z,5.90
2019-05-25T11:07:14.885Z,4.30
2019-05-25T11:09:47.421Z,4.00
2019-05-25T11:12:19.035Z,3.90
2019-05-25T11:14:51.784Z,3.93
2019-05-25T11:17:27.257Z,3.33
2019-05-25T11:20:00.712Z,3.57
2019-05-25T11:22:31.118Z,4.43
2019-05-25T11:25:03.050Z,3.57
2019-05-25T11:27:34.578Z,3.73
2019-05-25T11:30:09.647Z,3.07
2019-05-25T11:32:46.489Z,2.80
2019-05-25T11:35:26.438Z,3.03
2019-05-25T11:38:00.789Z,3.43
2019-05-25T11:40:44.798Z,3.60
2019-05-25T11:43:21.746Z,2.63
2019-05-25T11:45:55.140Z,3.37
2019-05-25T11:48:31.912Z,7.00
2019-05-25T11:51:07.900Z,3.83
2019-05-25T11:53:41.303Z,3.27
2019-05-25T11:56:14.937Z,3.43
2019-05-25T11:58:50.420Z,3.40
2019-05-25T12:01:21.287Z,3.43
2019-05-25T12:03:59.878Z,3.23
2019-05-25T12:06:42.352Z,3.30
2019-05-25T12:09:15.193Z,3.20
2019-05-25T12:11:54.377Z,2.77
2019-05-25T12:14:28.774Z,2.70
2019-05-25T12:17:00.698Z,2.83
2019-05-25T12:19:50.265Z,2.63
2019-05-25T12:22:29.990Z,2.60
2019-05-25T12:25:04.034Z,2.87
2019-05-25T12:27:37.177Z,2.77
2019-05-25T12:30:12.338Z,3.00
2019-05-25T12:32:53.116Z,3.30
2019-05-25T12:35:28.076Z,3.07
2019-05-25T12:38:08.964Z,2.80
2019-05-25T12:40:53.260Z,2.80
2019-05-25T12:43:21.299Z,2.60
2019-05-25T12:45:55.497Z,2.40
2019-05-25T12:48:28.083Z,2.70
2019-05-25T12:50:58.676Z,2.70
2019-05-25T12:53:36.253Z,2.70
2019-05-25T12:56:13.296Z,2.50
2019-05-25T12:58:43.154Z,2.80
2019-05-25T13:01:19.936Z,2.37
2019-05-25T13:03:56.044Z,2.60
2019-05-25T13:06:30.639Z,2.80
2019-05-25T13:09:06.859Z,2.63
2019-05-25T13:11:43.111Z,2.73
2019-05-25T13:14:15.036Z,3.00
2019-05-25T13:16:49.394Z,3.20
2019-05-25T13:19:22.208Z,2.80
2019-05-25T13:21:54.375Z,3.10
2019-05-25T13:24:26.246Z,3.10
2019-05-25T13:27:00.279Z,2.90
2019-05-25T13:29:34.559Z,2.70
2019-05-25T13:32:07.058Z,3.00
2019-05-25T13:34:41.521Z,3.10
2019-05-25T13:37:18.005Z,2.87
2019-05-25T13:39:55.978Z,2.90
2019-05-25T13:42:30.717Z,3.20
2019-05-25T13:45:13.188Z,2.83
2019-05-25T13:47:50.190Z,2.70
2019-05-25T13:50:23.162Z,2.93
2019-05-25T13:52:56.674Z,2.73
2019-05-25T13:55:29.206Z,2.77
2019-05-25T13:58:02.214Z,2.77
2019-05-25T14:00:36.035Z,2.80
2019-05-25T14:03:08.905Z,2.53
2019-05-25T14:05:46.533Z,2.70
2019-05-25T14:08:17.808Z,2.27
2019-05-25T14:10:54.668Z,2.40
2019-05-25T14:13:31.012Z,2.50
2019-05-25T14:16:08.649Z,2.30
2019-05-25T14:18:39.649Z,2.60
2019-05-25T14:21:17.272Z,2.30
2019-05-25T14:23:52.228Z,2.30
2019-05-25T14:26:25.987Z,2.20
2019-05-25T14:29:00.246Z,2.33
2019-05-25T14:31:45.370Z,2.20
2019-05-25T14:34:16.799Z,2.33
2019-05-25T14:36:49.294Z,2.20
2019-05-25T14:39:24.438Z,2.03
2019-05-25T14:41:59.693Z,2.40
2019-05-25T14:44:32.710Z,2.53
2019-05-25T14:47:23.105Z,2.50
2019-05-25T14:49:47.690Z,2.40
2019-05-25T14:52:28.148Z,2.37
2019-05-25T14:55:00.913Z,2.53
2019-05-25T14:57:36.414Z,2.17
2019-05-25T15:00:16.021Z,2.20
2019-05-25T15:02:50.414Z,2.30
2019-05-25T15:05:22.664Z,2.47
2019-05-25T15:07:57.596Z,2.50
2019-05-25T15:10:30.901Z,2.23
2019-05-25T15:13:20.436Z,2.50
2019-05-25T15:15:54.758Z,2.20
2019-05-25T15:18:30.093Z,2.10
2019-05-25T15:21:04.167Z,2.20
2019-05-25T15:23:40.783Z,2.20
2019-05-25T15:26:13.228Z,1.90
2019-05-25T15:28:49.658Z,2.33
2019-05-25T15:31:24.682Z,2.13
2019-05-25T15:34:00.300Z,2.00
2019-05-25T15:36:33.036Z,2.10
2019-05-25T15:39:09.884Z,2.80
2019-05-25T15:41:45.224Z,2.07
2019-05-25T15:44:19.172Z,2.20
2019-05-25T15:46:57.585Z,2.50
2019-05-25T15:49:35.683Z,2.80
2019-05-25T15:52:10.614Z,2.90
2019-05-25T15:54:42.648Z,2.30
2019-05-25T15:57:16.780Z,2.97
2019-05-25T15:59:52.668Z,3.40
2019-05-25T16:02:36.136Z,3.73
2019-05-25T16:05:02.697Z,4.00
2019-05-25T16:07:40.369Z,3.53
2019-05-25T16:10:14.815Z,4.10
2019-05-25T16:12:55.602Z,4.10
2019-05-25T16:15:41.572Z,3.70
2019-05-25T16:18:19.602Z,3.80
2019-05-25T16:20:54.539Z,4.00
2019-05-25T16:23:26.332Z,4.03
2019-05-25T16:26:00.666Z,4.20
2019-05-25T16:28:34.706Z,4.10
2019-05-25T16:31:08.471Z,4.00
2019-05-25T16:33:40.210Z,3.87
2019-05-25T16:36:13.775Z,4.20
2019-05-25T16:38:47.084Z,4.43
2019-05-25T16:41:22.059Z,4.13
2019-05-25T16:44:08.375Z,3.63
2019-05-25T16:46:49.260Z,3.63
2019-05-25T16:49:24.534Z,4.13
2019-05-25T16:52:04.341Z,3.97
2019-05-25T16:54:37.613Z,6.10
2019-05-25T16:57:15.580Z,4.40
2019-05-25T16:59:48.106Z,4.23
2019-05-25T17:02:22.444Z,3.70
2019-05-25T17:04:56.539Z,3.73
2019-05-25T17:07:31.005Z,3.80
2019-05-25T17:10:06.327Z,4.23
2019-05-25T17:12:39.723Z,3.77
2019-05-25T17:15:25.466Z,4.10
2019-05-25T17:18:08.889Z,3.70
2019-05-25T17:20:43.921Z,3.77
2019-05-25T17:23:20.816Z,4.07
2019-05-25T17:25:54.067Z,4.17
2019-05-25T17:28:29.763Z,4.27
2019-05-25T17:31:01.300Z,3.50
2019-05-25T17:33:45.857Z,3.60
2019-05-25T17:36:18.924Z,3.80
2019-05-25T17:38:59.693Z,3.40
2019-05-25T17:41:33.707Z,4.20
2019-05-25T17:44:09.494Z,4.00
2019-05-25T17:46:44.399Z,4.30
2019-05-25T17:49:18.904Z,4.50
2019-05-25T17:51:51.566Z,4.57
2019-05-25T17:54:31.136Z,4.70
2019-05-25T17:57:06.294Z,4.37
2019-05-25T17:59:41.310Z,4.67
2019-05-25T18:02:19.722Z,5.03
2019-05-25T18:04:53.297Z,4.80
2019-05-25T18:07:28.365Z,5.83
2019-05-25T18:10:03.102Z,6.07
2019-05-25T18:12:39.873Z,5.90
2019-05-25T18:15:15.334Z,5.67
2019-05-25T18:17:49.627Z,5.63
2019-05-25T18:20:24.275Z,6.00
2019-05-25T18:22:59.115Z,5.57
2019-05-25T18:25:36.886Z,5.80
2019-05-25T18:28:12.521Z,5.60
2019-05-25T18:30:45.518Z,5.53
2019-05-25T18:33:24.184Z,5.70
2019-05-25T18:35:58.048Z,5.70
2019-05-25T18:38:38.950Z,5.10
2019-05-25T18:41:17.214Z,4.83
2019-05-25T18:43:52.521Z,4.40
2019-05-25T18:46:34.313Z,5.00
2019-05-25T18:49:10.440Z,4.97
2019-05-25T18:51:43.752Z,4.83
2019-05-25T18:54:17.076Z,5.00
2019-05-25T18:56:53.985Z,4.07
2019-05-25T18:59:27.914Z,4.00
2019-05-25T19:02:06.940Z,4.60
2019-05-25T19:04:58.635Z,4.10
2019-05-25T19:07:24.588Z,3.50
2019-05-25T19:09:59.703Z,3.23
2019-05-25T19:12:34.249Z,3.07
2019-05-25T19:15:12.693Z,2.93
2019-05-25T19:17:41.714Z,2.70
2019-05-25T19:20:11.082Z,3.07
2019-05-25T19:22:39.823Z,3.00
2019-05-25T19:25:09.202Z,3.20
2019-05-25T19:27:37.886Z,3.50
2019-05-25T19:30:07.320Z,3.27
2019-05-25T19:32:35.899Z,3.27
2019-05-25T19:35:09.901Z,3.60
2019-05-25T19:37:42.077Z,3.87
2019-05-25T19:40:09.586Z,3.73
2019-05-25T19:42:38.391Z,4.40
2019-05-25T19:45:07.581Z,4.07
2019-05-25T19:47:36.403Z,3.77
2019-05-25T19:50:05.954Z,4.33
2019-05-25T19:52:34.458Z,4.00
2019-05-25T19:55:03.386Z,4.07
2019-05-25T19:57:31.861Z,3.93
2019-05-25T20:00:00.609Z,4.00
2019-05-25T20:02:29.328Z,4.00
2019-05-25T20:04:57.786Z,4.30
2019-05-25T20:07:26.547Z,4.17
2019-05-25T20:09:55.178Z,4.37
2019-05-25T20:12:24.083Z,3.87
2019-05-25T20:14:52.435Z,4.43
2019-05-25T20:17:21.524Z,4.43
2019-05-25T20:19:50.001Z,4.13
2019-05-25T20:22:18.555Z,3.93
2019-05-25T20:24:47.458Z,4.27
2019-05-25T20:27:16.145Z,4.57
2019-05-25T20:29:44.841Z,4.73
2019-05-25T20:32:13.526Z,4.67
2019-05-25T20:34:45.571Z,4.80
2019-05-25T20:37:12.734Z,4.70
2019-05-25T20:39:41.233Z,4.70
2019-05-25T20:42:09.897Z,5.33
2019-05-25T20:44:38.174Z,5.50
2019-05-25T20:47:07.765Z,4.73
2019-05-25T20:49:36.159Z,5.37
2019-05-25T20:52:04.948Z,4.17
2019-05-25T20:54:33.452Z,4.77
2019-05-25T20:57:03.242Z,5.63
2019-05-25T20:59:31.955Z,5.63
2019-05-25T21:02:00.650Z,5.97
2019-05-25T21:04:29.137Z,5.23
2019-05-25T21:06:57.788Z,4.90
2019-05-25T21:09:26.294Z,5.10
2019-05-25T21:11:55.956Z,5.53
2019-05-25T21:14:25.289Z,5.30
2019-05-25T21:16:54.011Z,4.87
2019-05-25T21:19:22.675Z,5.63
2019-05-25T21:21:51.330Z,5.87
2019-05-25T21:24:20.045Z,6.47
2019-05-25T21:26:48.690Z,6.17
2019-05-25T21:29:17.386Z,5.83
2019-05-25T21:31:46.107Z,6.77
2019-05-25T21:34:14.542Z,6.70
2019-05-25T21:36:43.468Z,6.57
2019-05-25T21:39:12.370Z,5.97
2019-05-25T21:41:41.020Z,6.27
2019-05-25T21:44:09.707Z,6.70
2019-05-25T21:46:38.418Z,6.70
2019-05-25T21:49:07.808Z,7.07
2019-05-25T21:51:36.601Z,7.73
2019-05-25T21:54:05.285Z,6.77
2019-05-25T21:56:33.851Z,6.53
2019-05-25T21:59:02.353Z,6.57
2019-05-25T22:01:31.138Z,6.70
2019-05-25T22:03:59.700Z,6.30
2019-05-25T22:06:28.183Z,5.80
2019-05-25T22:08:57.057Z,6.13
2019-05-25T22:11:25.663Z,6.13
2019-05-25T22:13:54.329Z,6.03
2019-05-25T22:16:23.190Z,6.10
2019-05-25T22:18:51.906Z,6.03
2019-05-25T22:21:20.627Z,5.90
2019-05-25T22:23:49.298Z,6.33
2019-05-25T22:26:17.971Z,6.43
2019-05-25T22:28:46.650Z,6.53
2019-05-25T22:31:15.382Z,6.30
2019-05-25T22:33:44.029Z,5.90
2019-05-25T22:36:12.516Z,6.20
2019-05-25T22:38:41.219Z,6.03
2019-05-25T22:41:13.411Z,6.20
2019-05-25T22:43:42.177Z,5.63
2019-05-25T22:46:10.922Z,5.77
2019-05-25T22:48:39.700Z,5.70
2019-05-25T22:51:08.254Z,5.60
2019-05-25T22:53:36.993Z,5.97
2019-05-25T22:56:05.478Z,5.63
2019-05-25T22:58:34.174Z,5.93
2019-05-25T23:01:02.534Z,5.47
2019-05-25T23:03:31.024Z,5.30
2019-05-25T23:06:00.460Z,5.40
2019-05-25T23:08:29.336Z,5.30
2019-05-25T23:10:58.068Z,5.20
2019-05-25T23:13:26.914Z,6.00
2019-05-25T23:15:55.572Z,6.40
2019-05-25T23:18:24.271Z,6.27
2019-05-25T23:20:52.997Z,6.27
2019-05-25T23:23:21.632Z,6.23
2019-05-25T23:25:50.591Z,5.73
2019-05-25T23:28:18.923Z,6.13
2019-05-25T23:30:47.688Z,6.43
2019-05-25T23:33:16.175Z,6.80
2019-05-25T23:35:44.916Z,7.53
2019-05-25T23:38:13.534Z,7.23
2019-05-25T23:40:42.261Z,7.53
2019-05-25T23:43:11.984Z,8.07
2019-05-25T23:45:40.639Z,6.97
2019-05-25T23:48:09.117Z,7.17
2019-05-25T23:50:37.816Z,7.67
2019-05-25T23:53:06.168Z,7.20
2019-05-25T23:55:34.946Z,6.90
2019-05-25T23:58:03.460Z,7.40
